Time;durP1;ratioP1;P1;durP2;ratioP2;P2;SDS_P1;SDS_P2;PMS_P1;PMS_P2;Temp;Humidity;BMP_temperature;BMP_pressure;BME280_temperature;BME280_humidity;BME280_pressure;Samples;Min_cycle;Max_cycle;Signal;HPM_P1;HPM_P2
2022/04/12 00:01:27;;;;;;;;;;;;;;;19.49;64.97;101331.97;5010713;28;1607;-36
2022/04/12 00:03:53;;;;;;;;;;;;;;;19.29;65.87;101314.81;5009993;28;1550;-36
2022/04/12 00:06:24;;;;;;;;;;;;;;;18.96;67.17;101329.94;5008323;28;1976;-36
2022/04/12 00:08:50;;;;;;;;;;;;;;;18.72;66.82;101315.75;5012807;28;1729;-36
2022/04/12 00:11:19;;;;;;;;;;;;;;;18.56;67.50;101325.00;5011866;28;1743;-36
2022/04/12 00:13:48;;;;;;;;;;;;;;;18.48;67.17;101314.88;5009452;28;1642;-36
2022/04/12 00:16:14;;;;;;;;;;;;;;;18.60;67.25;101320.25;5010847;28;1907;-36
2022/04/12 00:21:25;;;;;;;;;;;;;;;19.52;64.14;101320.13;5009958;28;1787;-36
2022/04/12 00:24:01;;;;;;;;;;;;;;;19.10;66.39;101315.44;5012095;28;1494;-36
2022/04/12 00:26:31;;;;;;;;;;;;;;;19.00;66.65;101311.78;5009975;28;1902;-36
2022/04/12 00:28:58;;;;;;;;;;;;;;;19.10;66.73;101326.16;5013280;28;1530;-36
2022/04/12 00:31:24;;;;;;;;;;;;;;;19.37;65.66;101322.22;5005092;28;1472;-36
2022/04/12 00:36:32;;;;;;;;;;;;;;;19.44;65.77;101310.03;4987856;28;2644;-36
2022/04/12 00:39:07;;;;;;;;;;;;;;;19.55;64.90;101333.28;4993455;28;1608;-36
2022/04/12 00:41:42;;;;;;;;;;;;;;;19.54;65.05;101328.94;4985070;28;1577;-36
2022/04/12 00:44:09;;;;;;;;;;;;;;;19.51;65.15;101323.78;4988974;28;1562;-36
2022/04/12 00:46:39;;;;;;;;;;;;;;;19.47;64.32;101325.88;4993209;28;1965;-36
2022/04/12 00:49:07;;;;;;;;;;;;;;;19.53;64.56;101322.69;4988573;28;1489;-36
2022/04/12 00:51:35;;;;;;;;;;;;;;;19.47;64.70;101332.06;4993218;28;1693;-36
2022/04/12 00:54:05;;;;;;;;;;;;;;;19.25;64.80;101327.59;4990921;28;1725;-36
2022/04/12 00:56:35;;;;;;;;;;;;;;;18.94;66.85;101331.91;4987038;28;1729;-36
2022/04/12 00:59:07;;;;;;;;;;;;;;;18.71;67.38;101324.78;4991628;28;1585;-36
2022/04/12 01:01:36;;;;;;;;;;;;;;;18.60;66.62;101328.28;4991978;28;1695;-36
2022/04/12 01:04:04;;;;;;;;;;;;;;;18.54;67.13;101343.00;4994801;28;1995;-36
2022/04/12 01:06:34;;;;;;;;;;;;;;;18.72;66.33;101342.53;4994719;28;1963;-36
2022/04/12 01:09:05;;;;;;;;;;;;;;;19.28;65.09;101330.06;4993864;28;1414;-36
2022/04/12 01:11:31;;;;;;;;;;;;;;;19.52;65.37;101329.03;4990184;28;1624;-36
2022/04/12 01:14:01;;;;;;;;;;;;;;;19.17;65.03;101327.38;4990107;28;1745;-36
2022/04/12 01:16:33;;;;;;;;;;;;;;;19.03;65.38;101330.31;4985564;28;1661;-36
2022/04/12 01:19:08;;;;;;;;;;;;;;;19.31;66.13;101326.25;4992686;28;1766;-36
2022/04/12 01:21:40;;;;;;;;;;;;;;;19.44;65.21;101326.97;4993566;28;1726;-36
2022/04/12 01:24:08;;;;;;;;;;;;;;;19.66;64.04;101334.13;4992185;28;1790;-36
2022/04/12 01:26:37;;;;;;;;;;;;;;;19.60;63.92;101329.25;4987709;28;1988;-36
2022/04/12 01:29:05;;;;;;;;;;;;;;;19.52;65.29;101325.47;4993690;28;1606;-36
2022/04/12 01:31:33;;;;;;;;;;;;;;;19.49;65.38;101329.28;5001522;28;1814;-36
2022/04/12 01:34:02;;;;;;;;;;;;;;;19.53;64.98;101324.53;5011618;28;1817;-36
2022/04/12 01:36:31;;;;;;;;;;;;;;;19.62;64.28;101327.31;5011315;28;1576;-36
2022/04/12 01:39:01;;;;;;;;;;;;;;;19.59;63.83;101322.19;5009051;28;1550;-36
2022/04/12 01:41:37;;;;;;;;;;;;;;;19.51;65.21;101323.78;5011970;28;1475;-36
2022/04/12 01:44:08;;;;;;;;;;;;;;;19.24;65.80;101328.59;5005185;28;1475;-36
2022/04/12 01:46:37;;;;;;;;;;;;;;;18.94;65.65;101321.19;5008475;28;1977;-36
2022/04/12 01:49:06;;;;;;;;;;;;;;;18.72;67.02;101332.69;5008802;28;1718;-36
2022/04/12 01:51:33;;;;;;;;;;;;;;;18.56;67.41;101327.69;5013601;28;1723;-36
2022/04/12 01:54:02;;;;;;;;;;;;;;;18.52;67.49;101339.59;5006481;28;1952;-36
2022/04/12 01:56:31;;;;;;;;;;;;;;;18.90;66.35;101327.75;5006552;28;1725;-36
2022/04/12 01:58:59;;;;;;;;;;;;;;;19.23;65.34;101337.59;5010592;28;10744;-36
2022/04/12 02:01:25;;;;;;;;;;;;;;;19.42;65.04;101320.88;5063858;22;3794;-88
2022/04/12 02:03:54;;;;;;;;;;;;;;;19.34;65.22;101331.38;5036545;28;1687;-90
2022/04/12 02:06:29;;;;;;;;;;;;;;;19.57;64.40;101331.34;5037917;28;1879;-89
2022/04/12 02:08:57;;;;;;;;;;;;;;;19.78;63.57;101331.44;5033022;28;1827;-89
2022/04/12 02:11:23;;;;;;;;;;;;;;;19.74;64.30;101330.00;5034023;28;1636;-89
2022/04/12 02:13:52;;;;;;;;;;;;;;;19.84;64.63;101331.78;5028252;28;1422;-90
2022/04/12 02:16:19;;;;;;;;;;;;;;;19.81;64.46;101344.59;5026172;28;1756;-89
2022/04/12 02:18:49;;;;;;;;;;;;;;;19.32;65.16;101346.75;5041862;28;1286;-89
2022/04/12 02:21:28;;;;;;;;;;;;;;;19.12;66.16;101350.16;5041673;28;1366;-90
2022/04/12 02:23:55;;;;;;;;;;;;;;;19.03;66.76;101341.88;5041042;28;1451;-90
2022/04/12 02:26:26;;;;;;;;;;;;;;;18.99;66.76;101324.31;5041352;28;1906;-90
2022/04/12 02:28:55;;;;;;;;;;;;;;;19.01;65.54;101332.25;5033668;28;1467;-90
2022/04/12 02:31:30;;;;;;;;;;;;;;;19.00;66.77;101342.13;5041628;28;1580;-90
2022/04/12 02:33:58;;;;;;;;;;;;;;;18.97;66.03;101322.75;5023615;28;1622;-91
2022/04/12 02:36:28;;;;;;;;;;;;;;;18.96;66.20;101343.34;5042222;28;1521;-91
2022/04/12 02:38:55;;;;;;;;;;;;;;;18.98;66.29;101346.75;5041684;28;1499;-90
2022/04/12 02:41:27;;;;;;;;;;;;;;;18.92;66.18;101333.84;5041298;28;1784;-91
2022/04/12 02:44:06;;;;;;;;;;;;;;;18.94;66.79;101339.94;5041578;28;1470;-90
2022/04/12 02:46:34;;;;;;;;;;;;;;;19.10;65.96;101341.38;5024907;28;1965;-91
2022/04/12 02:49:02;;;;;;;;;;;;;;;19.35;65.56;101335.75;5031823;28;1588;-90
2022/04/12 02:51:29;;;;;;;;;;;;;;;19.61;64.39;101341.69;5041419;28;1540;-90
2022/04/12 02:54:00;;;;;;;;;;;;;;;19.93;63.93;101332.00;5040790;28;1795;-90
2022/04/12 02:56:30;;;;;;;;;;;;;;;19.69;63.07;101333.00;5041881;28;1781;-90
2022/04/12 02:59:01;;;;;;;;;;;;;;;19.33;65.56;101336.88;5040275;28;1600;-90
2022/04/12 03:01:29;;;;;;;;;;;;;;;19.16;65.42;101333.72;5037921;28;1757;-90
2022/04/12 03:04:05;;;;;;;;;;;;;;;19.13;66.17;101349.19;5039326;28;1640;-90
2022/04/12 03:06:37;;;;;;;;;;;;;;;19.13;66.02;101338.47;5027067;28;1902;-91
2022/04/12 03:09:04;;;;;;;;;;;;;;;19.06;65.81;101340.78;5041163;28;1790;-90
2022/04/12 03:11:31;;;;;;;;;;;;;;;19.05;66.31;101337.25;5040543;28;1418;-90
2022/04/12 03:13:58;;;;;;;;;;;;;;;19.17;64.90;101345.28;5040882;28;1359;-90
2022/04/12 03:16:26;;;;;;;;;;;;;;;19.35;65.28;101343.81;5040261;28;1676;-90
2022/04/12 03:19:00;;;;;;;;;;;;;;;19.43;64.53;101337.81;5040073;28;1485;-90
2022/04/12 03:21:26;;;;;;;;;;;;;;;20.00;62.67;101360.88;5041147;28;1536;-91
2022/04/12 03:23:55;;;;;;;;;;;;;;;20.00;62.69;101357.34;5039302;28;1748;-90
2022/04/12 03:26:23;;;;;;;;;;;;;;;19.46;63.98;101343.81;5037369;28;1740;-90
2022/04/12 03:28:50;;;;;;;;;;;;;;;19.19;65.66;101357.59;5030001;28;2019;-90
2022/04/12 03:31:27;;;;;;;;;;;;;;;19.20;65.98;101356.63;5039467;28;1352;-90
2022/04/12 03:33:58;;;;;;;;;;;;;;;19.15;65.69;101366.84;5040133;28;1625;-90
2022/04/12 03:36:32;;;;;;;;;;;;;;;19.14;65.99;101375.00;5036337;28;1260;-90
2022/04/12 03:39:17;;;;;;;;;;;;;;;19.32;64.63;101365.53;5040302;28;1827;-90
2022/04/12 03:41:44;;;;;;;;;;;;;;;19.53;63.72;101359.41;5039211;28;1791;-90
2022/04/12 03:44:10;;;;;;;;;;;;;;;19.94;62.80;101347.13;5033122;28;1524;-91
2022/04/12 03:46:43;;;;;;;;;;;;;;;20.10;63.12;101358.28;5041102;28;1505;-90
2022/04/12 03:49:11;;;;;;;;;;;;;;;19.88;62.82;101356.53;5039463;28;1505;-90
2022/04/12 03:51:51;;;;;;;;;;;;;;;19.40;64.25;101370.28;5040578;28;1445;-91
2022/04/12 03:54:28;;;;;;;;;;;;;;;19.19;65.52;101383.56;5040034;28;1549;-90
2022/04/12 03:56:57;;;;;;;;;;;;;;;19.09;65.92;101372.69;5035647;28;1426;-90
2022/04/12 03:59:23;;;;;;;;;;;;;;;19.16;66.16;101376.63;5039554;28;1381;-90
2022/04/12 04:01:51;;;;;;;;;;;;;;;19.17;64.87;101381.00;5041727;28;1584;-90
2022/04/12 04:04:19;;;;;;;;;;;;;;;19.19;65.44;101391.59;5045154;28;1172;-90
2022/04/12 04:06:59;;;;;;;;;;;;;;;19.21;65.52;101376.25;5054728;28;1275;-91
2022/04/12 04:09:28;;;;;;;;;;;;;;;19.48;63.71;101374.03;5059588;28;1647;-90
2022/04/12 04:11:57;;;;;;;;;;;;;;;19.63;63.53;101382.66;5059933;28;1885;-89
2022/04/12 04:14:26;;;;;;;;;;;;;;;19.67;64.14;101383.25;5056959;28;1457;-90
2022/04/12 04:16:53;;;;;;;;;;;;;;;20.19;61.97;101373.66;5059567;28;1551;-90
2022/04/12 04:19:27;;;;;;;;;;;;;;;20.10;62.90;101387.81;5059191;28;1802;-90
2022/04/12 04:21:56;;;;;;;;;;;;;;;19.89;63.46;101376.19;5059557;28;1254;-91
2022/04/12 04:24:30;;;;;;;;;;;;;;;20.03;62.54;101368.69;5059879;28;1660;-90
2022/04/12 04:27:11;;;;;;;;;;;;;;;19.47;63.51;101382.19;5067127;28;1979;-91
2022/04/12 04:29:38;;;;;;;;;;;;;;;19.24;64.50;101376.84;5056192;28;1743;-90
2022/04/12 04:32:05;;;;;;;;;;;;;;;19.28;64.77;101388.19;5057961;28;1841;-90
2022/04/12 04:34:37;;;;;;;;;;;;;;;19.48;64.84;101394.66;5059684;28;1476;-91
2022/04/12 04:37:05;;;;;;;;;;;;;;;19.78;63.89;101390.50;5059828;28;1422;-90
2022/04/12 04:39:33;;;;;;;;;;;;;;;19.68;63.14;101396.56;5058014;28;1619;-91
2022/04/12 04:42:05;;;;;;;;;;;;;;;20.16;62.31;101395.38;5050693;28;1929;-90
2022/04/12 04:44:39;;;;;;;;;;;;;;;20.25;62.49;101399.09;5056414;28;1520;-91
2022/04/12 04:47:15;;;;;;;;;;;;;;;19.77;63.29;101394.97;5051056;28;1902;-90
2022/04/12 04:49:57;;;;;;;;;;;;;;;19.51;63.23;101409.63;5050783;28;1589;-90
2022/04/12 04:52:23;;;;;;;;;;;;;;;19.41;65.04;101410.34;5059229;28;1618;-90
2022/04/12 04:55:01;;;;;;;;;;;;;;;19.47;64.97;101406.34;5059452;28;1584;-89
2022/04/12 04:57:29;;;;;;;;;;;;;;;19.65;63.28;101404.00;5048661;28;1707;-90
2022/04/12 05:00:03;;;;;;;;;;;;;;;19.92;63.13;101413.50;5058481;28;1774;-91
2022/04/12 05:02:30;;;;;;;;;;;;;;;20.05;63.40;101416.88;5058248;28;1350;-89
2022/04/12 05:05:03;;;;;;;;;;;;;;;20.10;62.83;101416.50;5057729;28;1714;-90
2022/04/12 05:07:32;;;;;;;;;;;;;;;20.11;62.17;101413.69;5058501;28;1890;-91
2022/04/12 05:10:09;;;;;;;;;;;;;;;20.16;62.10;101419.53;5058990;28;1736;-91
2022/04/12 05:12:42;;;;;;;;;;;;;;;20.18;62.91;101417.56;5055851;28;1771;-90
2022/04/12 05:15:09;;;;;;;;;;;;;;;20.15;62.96;101415.13;5052821;28;1433;-91
2022/04/12 05:17:52;;;;;;;;;;;;;;;20.13;63.01;101414.41;5058577;28;1869;-89
2022/04/12 05:20:19;;;;;;;;;;;;;;;19.96;63.26;101420.34;5058591;28;1845;-88
2022/04/12 05:22:47;;;;;;;;;;;;;;;19.84;63.62;101430.25;5058338;28;1670;-89
2022/04/12 05:25:15;;;;;;;;;;;;;;;19.71;63.31;101422.31;5006694;28;10735;-87
2022/04/12 05:27:45;;;;;;;;;;;;;;;19.61;64.84;101421.31;5055746;28;1890;-90
2022/04/12 05:30:14;;;;;;;;;;;;;;;19.58;64.14;101426.97;5054861;28;1346;-89
2022/04/12 05:32:51;;;;;;;;;;;;;;;19.87;64.34;101427.28;5058281;28;1418;-86
2022/04/12 05:35:19;;;;;;;;;;;;;;;20.51;62.17;101404.13;5055378;28;1233;-88
2022/04/12 05:37:53;;;;;;;;;;;;;;;20.71;61.10;101405.13;5059157;28;1601;-89
2022/04/12 05:40:26;;;;;;;;;;;;;;;20.38;62.03;101412.38;5049855;28;1513;-88
2022/04/12 05:42:55;;;;;;;;;;;;;;;20.07;63.66;101406.84;5058257;28;1190;-89
2022/04/12 05:45:22;;;;;;;;;;;;;;;19.98;64.15;101421.06;5057015;28;1597;-88
2022/04/12 05:47:50;;;;;;;;;;;;;;;20.45;62.26;101418.91;5057296;28;1902;-89
2022/04/12 05:50:17;;;;;;;;;;;;;;;20.93;61.22;101410.41;5058539;28;1408;-87
2022/04/12 05:52:45;;;;;;;;;;;;;;;21.28;61.01;101427.13;5062041;28;1388;-88
2022/04/12 05:55:19;;;;;;;;;;;;;;;20.81;61.94;101416.81;5060760;28;1429;-86
2022/04/12 05:57:52;;;;;;;;;;;;;;;20.30;62.77;101418.38;5063451;28;1192;-86
2022/04/12 06:00:22;;;;;;;;;;;;;;;19.83;62.91;101421.31;5060319;28;1329;-89
2022/04/12 06:02:48;;;;;;;;;;;;;;;19.90;62.67;101410.94;5073204;28;1450;-86
2022/04/12 06:05:15;;;;;;;;;;;;;;;20.51;60.94;101429.16;5074332;28;1638;-89
2022/04/12 06:07:43;;;;;;;;;;;;;;;20.51;60.64;101418.41;5074553;28;1913;-88
2022/04/12 06:10:17;;;;;;;;;;;;;;;20.24;61.47;101419.75;5076859;28;1587;-86
2022/04/12 06:12:44;;;;;;;;;;;;;;;20.12;61.98;101423.47;5079635;28;1548;-86
2022/04/12 06:15:12;;;;;;;;;;;;;;;20.02;62.55;101425.19;5081401;28;1575;-87
2022/04/12 06:17:39;;;;;;;;;;;;;;;20.44;61.56;101425.28;5080612;28;1652;-88
2022/04/12 06:20:07;;;;;;;;;;;;;;;20.98;59.54;101443.09;5078521;28;1810;-90
2022/04/12 06:22:35;;;;;;;;;;;;;;;20.85;60.29;101435.25;5072745;28;1794;-90
2022/04/12 06:25:04;;;;;;;;;;;;;;;20.57;61.87;101443.91;5080525;28;1547;-89
2022/04/12 06:27:32;;;;;;;;;;;;;;;20.26;62.29;101428.53;5077101;28;1448;-89
2022/04/12 06:29:58;;;;;;;;;;;;;;;20.11;62.28;101445.91;5080427;28;1562;-89
2022/04/12 06:32:27;;;;;;;;;;;;;;;20.09;63.30;101441.66;5074824;28;1548;-88
2022/04/12 06:34:54;;;;;;;;;;;;;;;20.37;62.39;101449.13;5080991;28;1705;-86
2022/04/12 06:37:25;;;;;;;;;;;;;;;20.22;62.57;101458.47;5080435;28;1814;-90
2022/04/12 06:39:51;;;;;;;;;;;;;;;19.95;61.49;101467.78;5080425;28;1630;-90
2022/04/12 06:42:18;;;;;;;;;;;;;;;19.48;53.93;101467.06;5081210;28;1413;-89
2022/04/12 06:44:44;;;;;;;;;;;;;;;19.06;59.75;101464.94;5079813;28;1719;-90
2022/04/12 06:47:29;;;;;;;;;;;;;;;19.23;60.06;101470.81;5081382;28;1599;-89
2022/04/12 06:49:58;;;;;;;;;;;;;;;19.33;57.59;101466.44;5081017;28;1882;-90
2022/04/12 06:52:25;;;;;;;;;;;;;;;19.37;56.50;101472.41;5080396;28;1706;-89
2022/04/12 06:54:51;;;;;;;;;;;;;;;19.36;56.79;101468.91;5081140;28;1544;-89
2022/04/12 06:57:18;;;;;;;;;;;;;;;19.31;56.77;101476.44;5078980;28;1580;-89
2022/04/12 06:59:45;;;;;;;;;;;;;;;19.26;55.78;101462.56;5080737;28;1782;-89
2022/04/12 07:02:12;;;;;;;;;;;;;;;19.30;56.55;101482.78;5079379;28;1480;-90
2022/04/12 07:04:39;;;;;;;;;;;;;;;19.25;56.59;101458.16;5072262;28;1626;-90
2022/04/12 07:07:07;;;;;;;;;;;;;;;19.27;55.98;101466.94;5078547;28;1484;-89
2022/04/12 07:09:34;;;;;;;;;;;;;;;19.25;56.27;101463.50;5074092;28;1909;-90
2022/04/12 07:12:01;;;;;;;;;;;;;;;19.25;55.63;101468.88;5080415;28;1628;-89
2022/04/12 07:14:29;;;;;;;;;;;;;;;19.22;54.54;101469.13;5080969;28;1454;-89
2022/04/12 07:16:55;;;;;;;;;;;;;;;19.22;55.63;101458.41;5074552;28;1843;-89
2022/04/12 07:19:22;;;;;;;;;;;;;;;19.20;54.70;101463.00;5081054;28;1623;-89
2022/04/12 07:21:49;;;;;;;;;;;;;;;19.22;55.02;101478.03;5081091;28;1536;-90
2022/04/12 07:24:17;;;;;;;;;;;;;;;19.19;55.62;101466.69;5079591;28;1762;-88
2022/04/12 07:26:45;;;;;;;;;;;;;;;19.18;55.33;101475.66;5080145;28;1520;-89
2022/04/12 07:29:11;;;;;;;;;;;;;;;19.15;55.17;101467.88;5080740;28;1965;-90
2022/04/12 07:31:38;;;;;;;;;;;;;;;19.12;54.43;101466.31;5075710;28;1655;-89
2022/04/12 07:34:05;;;;;;;;;;;;;;;19.11;55.29;101466.41;5080389;28;1580;-89
2022/04/12 07:36:33;;;;;;;;;;;;;;;19.08;56.12;101468.38;5073325;28;1444;-89
2022/04/12 07:38:59;;;;;;;;;;;;;;;19.06;55.81;101466.78;5080025;28;1472;-89
2022/04/12 07:41:27;;;;;;;;;;;;;;;19.04;55.74;101468.72;5080135;28;1662;-89
2022/04/12 07:43:54;;;;;;;;;;;;;;;19.04;54.92;101460.69;5078979;28;1488;-89
2022/04/12 07:46:20;;;;;;;;;;;;;;;19.04;55.47;101466.91;5079042;28;1687;-89
2022/04/12 07:48:47;;;;;;;;;;;;;;;19.02;55.13;101462.59;5079288;28;2243;-89
2022/04/12 07:51:13;;;;;;;;;;;;;;;19.02;54.40;101458.13;5078759;28;1498;-90
2022/04/12 07:53:40;;;;;;;;;;;;;;;18.99;55.52;101466.38;5079601;28;1540;-89
2022/04/12 07:56:07;;;;;;;;;;;;;;;19.04;54.68;101460.69;5079198;28;1571;-90
2022/04/12 07:58:36;;;;;;;;;;;;;;;19.01;55.92;101456.41;5079652;28;1727;-89
2022/04/12 08:01:03;;;;;;;;;;;;;;;18.95;55.11;101448.84;5080268;28;1548;-89
2022/04/12 08:03:29;;;;;;;;;;;;;;;18.93;55.39;101469.53;5074447;28;1516;-89
2022/04/12 08:05:56;;;;;;;;;;;;;;;18.92;55.42;101462.50;5071785;28;1472;-90
2022/04/12 08:08:22;;;;;;;;;;;;;;;18.90;55.24;101459.06;5071652;28;1965;-89
2022/04/12 08:10:50;;;;;;;;;;;;;;;18.90;54.94;101468.91;5072051;28;1449;-89
2022/04/12 08:13:17;;;;;;;;;;;;;;;18.91;53.41;101466.13;5078811;28;1615;-89
2022/04/12 08:15:46;;;;;;;;;;;;;;;18.90;53.65;101458.19;5079926;28;1532;-89
2022/04/12 08:18:13;;;;;;;;;;;;;;;18.86;53.76;101457.56;5078396;28;1614;-90
2022/04/12 08:20:39;;;;;;;;;;;;;;;18.81;53.85;101459.78;5079652;28;1568;-90
2022/04/12 08:23:06;;;;;;;;;;;;;;;18.79;53.97;101461.69;5078460;28;1547;-90
2022/04/12 08:25:32;;;;;;;;;;;;;;;18.76;52.85;101448.50;5078296;28;1782;-90
2022/04/12 08:27:59;;;;;;;;;;;;;;;18.73;54.21;101462.16;5079262;28;1842;-90
2022/04/12 08:30:26;;;;;;;;;;;;;;;18.66;54.23;101441.19;5077317;28;1983;-89
2022/04/12 08:32:55;;;;;;;;;;;;;;;18.63;52.44;101456.63;5078491;28;1873;-91
2022/04/12 08:35:21;;;;;;;;;;;;;;;18.59;54.07;101449.81;5078910;28;1779;-90
2022/04/12 08:37:48;;;;;;;;;;;;;;;18.52;54.38;101453.91;5070865;28;1404;-89
2022/04/12 08:40:18;;;;;;;;;;;;;;;18.59;53.50;101456.00;5076643;28;1485;-90
2022/04/12 08:42:54;;;;;;;;;;;;;;;18.60;52.16;101441.66;5072789;28;1592;-90
2022/04/12 08:45:21;;;;;;;;;;;;;;;18.55;53.09;101443.81;5078947;28;1912;-90
2022/04/12 08:47:58;;;;;;;;;;;;;;;18.55;52.99;101449.16;5079567;28;1786;-90
2022/04/12 08:50:27;;;;;;;;;;;;;;;18.53;53.17;101445.75;5077351;28;1917;-90
2022/04/12 08:52:53;;;;;;;;;;;;;;;18.49;52.46;101436.25;5079539;28;1854;-90
2022/04/12 08:55:22;;;;;;;;;;;;;;;18.46;51.98;101444.50;5077911;28;1667;-90
2022/04/12 08:57:49;;;;;;;;;;;;;;;18.42;51.73;101435.00;5076694;28;1523;-90
2022/04/12 09:00:16;;;;;;;;;;;;;;;18.40;53.02;101434.25;5078725;28;1464;-90
2022/04/12 09:02:42;;;;;;;;;;;;;;;18.33;51.14;101423.16;5073083;28;1655;-90
2022/04/12 09:05:10;;;;;;;;;;;;;;;18.36;53.34;101427.41;5073087;28;1651;-90
2022/04/12 09:07:45;;;;;;;;;;;;;;;18.32;53.14;101410.72;5077675;28;1606;-90
2022/04/12 09:10:13;;;;;;;;;;;;;;;18.39;51.20;101411.13;5075663;28;1981;-90
2022/04/12 09:12:40;;;;;;;;;;;;;;;18.60;49.17;101404.16;5077250;28;1361;-91
2022/04/12 09:15:14;;;;;;;;;;;;;;;18.76;50.64;101422.59;5078066;28;1266;-91
2022/04/12 09:17:44;;;;;;;;;;;;;;;18.92;49.34;101413.38;5078479;28;1805;-90
2022/04/12 09:20:14;;;;;;;;;;;;;;;18.97;50.23;101412.03;5078379;28;1857;-92
2022/04/12 09:22:41;;;;;;;;;;;;;;;19.11;50.10;101396.72;5062234;28;1496;-86
2022/04/12 09:25:10;;;;;;;;;;;;;;;19.12;50.83;101388.56;5075333;28;1398;-91
2022/04/12 09:27:37;;;;;;;;;;;;;;;19.15;51.23;101404.38;5071587;28;1704;-89
2022/04/12 09:30:05;;;;;;;;;;;;;;;19.21;51.34;101408.41;5077376;28;1910;-87
2022/04/12 09:32:35;;;;;;;;;;;;;;;19.23;52.58;101398.44;5078240;28;1659;-89
2022/04/12 09:35:04;;;;;;;;;;;;;;;19.15;52.46;101388.31;5077197;28;1563;-91
2022/04/12 09:37:33;;;;;;;;;;;;;;;18.84;52.21;101388.03;5075274;28;1455;-84
2022/04/12 09:40:21;;;;;;;;;;;;;;;18.96;52.24;101372.84;5071505;28;1512;-91
2022/04/12 09:42:49;;;;;;;;;;;;;;;18.98;52.16;101381.59;5076172;28;1680;-91
2022/04/12 09:45:16;;;;;;;;;;;;;;;19.00;52.00;101401.09;5075974;28;1767;-91
2022/04/12 09:47:43;;;;;;;;;;;;;;;18.94;51.72;101390.88;5072851;28;1392;-91
2022/04/12 09:50:28;;;;;;;;;;;;;;;;;;;;;
2022/04/12 09:53:25;;;;;;;;;;;;;;;18.91;53.30;101388.41;5075395;28;1438;-91
2022/04/12 09:55:54;;;;;;;;;;;;;;;18.96;53.96;101386.22;4997947;28;1570;-90
2022/04/12 10:01:02;;;;;;;;;;;;;;;18.92;54.36;101370.50;5075417;28;1733;-91
2022/04/12 10:03:30;;;;;;;;;;;;;;;18.90;55.07;101384.03;5077848;28;1717;-90
2022/04/12 10:05:57;;;;;;;;;;;;;;;18.87;54.25;101379.75;5070774;28;1626;-90
2022/04/12 10:08:25;;;;;;;;;;;;;;;18.64;54.71;101362.75;5075444;28;1606;-91
2022/04/12 10:10:52;;;;;;;;;;;;;;;18.65;54.18;101364.47;5073771;28;1926;-91
2022/04/12 10:13:25;;;;;;;;;;;;;;;18.71;53.08;101370.31;5076467;28;1866;-91
2022/04/12 10:15:57;;;;;;;;;;;;;;;18.77;53.68;101368.00;5074592;28;1672;-92
2022/04/12 10:18:27;;;;;;;;;;;;;;;18.89;53.38;101368.91;5061430;28;1534;-91
2022/04/12 10:21:11;;;;;;;;;;;;;;;18.92;53.27;101367.81;5066867;28;1373;-92
2022/04/12 10:23:47;;;;;;;;;;;;;;;18.91;54.33;101363.44;5068428;28;1559;-92
2022/04/12 10:26:14;;;;;;;;;;;;;;;18.95;53.46;101371.09;5076711;28;1503;-91
2022/04/12 10:28:42;;;;;;;;;;;;;;;18.95;54.11;101364.91;5076325;28;1652;-91
2022/04/12 10:31:22;;;;;;;;;;;;;;;18.96;53.90;101367.47;5075044;28;1987;-92
2022/04/12 10:34:11;;;;;;;;;;;;;;;18.95;54.32;101364.91;5074262;28;1453;-91
2022/04/12 10:37:20;;;;;;;;;;;;;;;18.96;54.30;101363.91;5065567;28;1512;-92
2022/04/12 10:40:00;;;;;;;;;;;;;;;18.94;55.27;101371.22;5028415;28;1816;-91
2022/04/12 10:42:27;;;;;;;;;;;;;;;18.95;54.82;101363.06;5036121;28;1446;-91
2022/04/12 10:44:58;;;;;;;;;;;;;;;18.94;55.59;101366.75;5053203;28;1350;-92
2022/04/12 10:47:27;;;;;;;;;;;;;;;18.94;54.97;101364.06;5070296;28;1655;-92
2022/04/12 10:49:54;;;;;;;;;;;;;;;18.96;55.38;101354.06;5078847;28;1906;-92
2022/04/12 10:52:34;;;;;;;;;;;;;;;18.94;56.33;101342.63;5078053;28;1668;-91
2022/04/12 10:55:16;;;;;;;;;;;;;;;18.91;56.55;101332.13;5077690;28;1549;-92
2022/04/12 10:57:43;;;;;;;;;;;;;;;18.93;56.91;101346.25;5070758;28;1600;-91
2022/04/12 11:06:10;;;;;;;;;;;;;;;18.94;56.21;101345.31;5069530;28;1317;-92
2022/04/12 11:08:47;;;;;;;;;;;;;;;18.90;57.25;101322.41;5077790;28;1452;-90
2022/04/12 11:14:26;;;;;;;;;;;;;;;19.00;56.87;101346.63;5063172;28;1647;-91
2022/04/12 11:16:56;;;;;;;;;;;;;;;19.01;56.33;101333.09;5078461;28;1695;-91
2022/04/12 11:19:25;;;;;;;;;;;;;;;19.00;56.72;101334.09;5082033;28;1597;-91
2022/04/12 11:22:01;;;;;;;;;;;;;;;19.04;56.80;101343.59;5082583;28;1518;-91
2022/04/12 11:24:29;;;;;;;;;;;;;;;19.05;56.17;101331.03;5078442;28;1495;-91
2022/04/12 11:27:03;;;;;;;;;;;;;;;19.11;56.15;101324.34;5077355;28;1433;-89
2022/04/12 11:29:30;;;;;;;;;;;;;;;19.12;56.39;101324.22;5079071;28;1887;-91
2022/04/12 11:31:57;;;;;;;;;;;;;;;18.95;57.32;101316.66;5085928;28;1588;-91
2022/04/12 11:34:26;;;;;;;;;;;;;;;18.83;56.96;101319.34;5077757;28;1640;-91
2022/04/12 11:36:55;;;;;;;;;;;;;;;18.80;56.59;101308.88;5075997;28;1826;-91
2022/04/12 11:39:23;;;;;;;;;;;;;;;18.79;56.28;101309.81;5078029;28;1548;-90
2022/04/12 11:41:50;;;;;;;;;;;;;;;18.79;56.47;101308.94;5063581;28;1611;-93
2022/04/12 11:44:21;;;;;;;;;;;;;;;19.15;55.14;101313.22;5077579;28;1528;-92
2022/04/12 11:46:55;;;;;;;;;;;;;;;20.10;53.42;101311.81;5078767;28;1503;-91
2022/04/12 11:49:27;;;;;;;;;;;;;;;20.22;53.45;101300.00;5075636;28;1905;-90
2022/04/12 11:52:09;;;;;;;;;;;;;;;19.68;54.04;101304.50;5076413;28;1729;-92
2022/04/12 11:54:37;;;;;;;;;;;;;;;19.59;55.42;101306.06;5079342;28;1887;-91
2022/04/12 11:57:04;;;;;;;;;;;;;;;20.08;54.39;101284.22;5083865;28;1324;-84
2022/04/12 11:59:31;;;;;;;;;;;;;;;20.41;52.77;101294.78;5085355;28;1222;-87
2022/04/12 12:01:59;;;;;;;;;;;;;;;20.06;53.81;101273.63;5079947;28;1237;-87
2022/04/12 12:04:29;;;;;;;;;;;;;;;19.63;55.75;101279.84;5080154;28;1662;-88
2022/04/12 12:07:02;;;;;;;;;;;;;;;19.57;56.19;101283.06;5078798;28;1294;-87
2022/04/12 12:09:28;;;;;;;;;;;;;;;20.14;54.22;101284.56;5079902;28;1913;-88
2022/04/12 12:11:59;;;;;;;;;;;;;;;20.37;53.99;101268.28;5080917;28;1557;-87
2022/04/12 12:14:27;;;;;;;;;;;;;;;20.59;54.01;101272.69;5078926;28;1504;-90
2022/04/12 12:17:02;;;;;;;;;;;;;;;20.74;52.34;101275.88;5077394;28;1504;-89
2022/04/12 12:19:33;;;;;;;;;;;;;;;20.70;52.65;101269.06;5078463;28;1524;-90
2022/04/12 12:24:51;;;;;;;;;;;;;;;20.71;52.78;101271.63;5050936;28;1605;-89
2022/04/12 12:27:28;;;;;;;;;;;;;;;20.68;53.79;101271.06;5079583;28;1454;-90
2022/04/12 12:29:59;;;;;;;;;;;;;;;20.71;53.71;101265.38;5078454;28;1910;-90
2022/04/12 12:32:25;;;;;;;;;;;;;;;20.79;53.12;101270.94;5077467;28;1837;-89
2022/04/12 12:34:53;;;;;;;;;;;;;;;20.79;53.64;101257.50;5078589;28;1518;-86
2022/04/12 12:37:27;;;;;;;;;;;;;;;20.81;54.16;101260.91;5077183;28;1774;-92
2022/04/12 12:39:54;;;;;;;;;;;;;;;20.80;53.43;101253.84;5079166;28;1644;-91
2022/04/12 12:42:25;;;;;;;;;;;;;;;20.79;53.32;101262.88;5079189;28;1965;-91
2022/04/12 12:44:54;;;;;;;;;;;;;;;20.75;53.44;101277.56;5074507;28;1609;-91
2022/04/12 12:47:22;;;;;;;;;;;;;;;20.70;53.56;101242.19;5078361;28;1778;-88
2022/04/12 12:49:51;;;;;;;;;;;;;;;20.58;53.63;101268.28;5081343;28;1910;-89
2022/04/12 12:52:18;;;;;;;;;;;;;;;20.50;55.26;101268.94;5079729;28;1616;-88
2022/04/12 12:57:50;;;;;;;;;;;;;;;20.50;54.03;101251.97;5134166;22;2016;-38
2022/04/12 13:00:18;;;;;;;;;;;;;;;20.63;55.17;101261.56;5009731;28;1379;-36
2022/04/12 13:02:44;;;;;;;;;;;;;;;20.73;54.23;101253.53;5026637;28;1695;-36
2022/04/12 13:05:11;;;;;;;;;;;;;;;20.78;54.00;101242.38;5034677;28;1722;-36
2022/04/12 13:07:38;;;;;;;;;;;;;;;20.86;53.66;101242.53;5032053;28;1489;-35
2022/04/12 13:10:09;;;;;;;;;;;;;;;20.76;54.82;101260.47;5024886;28;1902;-37
2022/04/12 13:12:36;;;;;;;;;;;;;;;20.83;54.39;101258.94;5030679;28;1527;-36
2022/04/12 13:15:19;;;;;;;;;;;;;;;20.77;54.89;101251.41;5032501;28;1751;-36
2022/04/12 13:17:47;;;;;;;;;;;;;;;20.89;54.78;101260.22;5032206;28;1768;-36
2022/04/12 13:20:15;;;;;;;;;;;;;;;20.91;53.73;101240.31;5029104;28;1390;-35
2022/04/12 13:22:41;;;;;;;;;;;;;;;20.89;55.08;101258.41;5030193;28;1567;-36
2022/04/12 13:25:08;;;;;;;;;;;;;;;20.94;54.82;101261.53;5030762;28;1411;-36